createdAt,value
2022-08-12T00:00:14.515Z,2.50
2022-08-12T00:00:50.953Z,2.40
2022-08-12T00:02:01.923Z,2.60
2022-08-12T00:02:07.843Z,2.50
2022-08-12T00:02:43.641Z,2.70
2022-08-12T00:03:20.878Z,2.50
2022-08-12T00:03:56.973Z,2.80
2022-08-12T00:04:31.716Z,2.30
2022-08-12T00:05:06.519Z,2.20
2022-08-12T00:05:57.074Z,2.60
2022-08-12T00:06:22.605Z,2.20
2022-08-12T00:06:57.355Z,2.30
2022-08-12T00:07:32.096Z,2.40
2022-08-12T00:08:06.890Z,2.30
2022-08-12T00:08:41.647Z,2.30
2022-08-12T00:09:16.419Z,2.50
2022-08-12T00:09:51.197Z,2.40
2022-08-12T00:10:25.958Z,2.50
2022-08-12T00:11:09.710Z,2.40
2022-08-12T00:11:40.318Z,2.50
2022-08-12T00:12:15.108Z,2.80
2022-08-12T00:12:50.799Z,2.50
2022-08-12T00:13:25.528Z,2.40
2022-08-12T00:14:00.288Z,2.50
2022-08-12T00:14:35.007Z,2.50
2022-08-12T00:15:09.758Z,2.60
2022-08-12T00:15:45.951Z,2.70
2022-08-12T00:16:20.673Z,2.80
2022-08-12T00:16:55.430Z,2.50
2022-08-12T00:17:31.134Z,2.60
2022-08-12T00:18:05.889Z,2.50
2022-08-12T00:18:41.962Z,2.40
2022-08-12T00:19:16.700Z,2.80
2022-08-12T00:19:51.441Z,2.20
2022-08-12T00:20:26.182Z,2.40
2022-08-12T00:21:05.524Z,2.40
2022-08-12T00:21:41.241Z,2.50
2022-08-12T00:22:17.802Z,2.20
2022-08-12T00:22:59.359Z,2.20
2022-08-12T00:23:32.162Z,2.50
2022-08-12T00:24:06.903Z,2.50
2022-08-12T00:24:45.344Z,2.20
2022-08-12T00:25:20.085Z,2.50
2022-08-12T00:26:23.795Z,2.50
2022-08-12T00:26:39.315Z,2.60
2022-08-12T00:27:14.056Z,2.60
2022-08-12T00:27:48.808Z,2.50
2022-08-12T00:28:26.005Z,2.40
2022-08-12T00:29:00.765Z,2.10
2022-08-12T00:29:35.495Z,2.40
2022-08-12T00:30:10.246Z,2.60
2022-08-12T00:30:46.697Z,2.70
2022-08-12T00:31:21.425Z,2.50
2022-08-12T00:31:56.158Z,2.70
2022-08-12T00:32:54.495Z,2.60
2022-08-12T00:33:10.538Z,2.60
2022-08-12T00:33:52.419Z,2.30
2022-08-12T00:34:25.707Z,2.30
2022-08-12T00:35:08.944Z,2.60
2022-08-12T00:35:42.814Z,2.60
2022-08-12T00:36:35.885Z,2.50
2022-08-12T00:37:03.949Z,2.20
2022-08-12T00:37:38.376Z,2.20
2022-08-12T00:38:14.089Z,2.50
2022-08-12T00:38:50.501Z,2.70
2022-08-12T00:39:25.274Z,2.50
2022-08-12T00:39:59.981Z,2.50
2022-08-12T00:40:34.720Z,2.10
2022-08-12T00:41:09.464Z,2.50
2022-08-12T00:41:45.171Z,2.70
2022-08-12T00:42:19.936Z,2.40
2022-08-12T00:42:54.660Z,2.30
2022-08-12T00:43:31.081Z,2.60
2022-08-12T00:44:06.781Z,2.70
2022-08-12T00:44:42.369Z,2.60
2022-08-12T00:45:18.233Z,2.40
2022-08-12T00:45:52.982Z,2.40
2022-08-12T00:46:27.723Z,2.50
2022-08-12T00:47:02.468Z,2.20
2022-08-12T00:47:37.203Z,2.50
2022-08-12T00:48:11.933Z,2.60
2022-08-12T00:48:48.133Z,2.70
2022-08-12T00:49:22.885Z,2.90
2022-08-12T00:49:57.627Z,2.70
2022-08-12T00:50:32.355Z,2.80
2022-08-12T00:51:08.046Z,2.30
2022-08-12T00:51:44.455Z,2.50
2022-08-12T00:52:19.397Z,2.70
2022-08-12T00:52:55.816Z,2.60
2022-08-12T00:53:30.566Z,2.40
2022-08-12T00:54:05.306Z,2.60
2022-08-12T00:54:41.766Z,2.50
2022-08-12T00:55:17.968Z,2.30
2022-08-12T00:55:52.717Z,2.40
2022-08-12T00:56:27.447Z,2.40
2022-08-12T00:57:02.196Z,2.60
2022-08-12T00:57:37.333Z,2.60
2022-08-12T00:58:12.159Z,2.50
2022-08-12T00:58:46.897Z,2.90
2022-08-12T00:59:22.598Z,2.50
2022-08-12T00:59:59.052Z,2.60
2022-08-12T01:00:33.779Z,2.80
2022-08-12T01:01:08.569Z,2.50
2022-08-12T01:02:10.254Z,2.10
2022-08-12T01:02:23.010Z,2.40
2022-08-12T01:02:57.779Z,2.60
2022-08-12T01:03:33.520Z,2.40
2022-08-12T01:04:10.730Z,2.50
2022-08-12T01:04:45.719Z,2.60
2022-08-12T01:05:20.461Z,2.70
2022-08-12T01:05:55.192Z,2.40
2022-08-12T01:06:29.930Z,2.40
2022-08-12T01:07:04.651Z,2.60
2022-08-12T01:07:39.412Z,2.40
2022-08-12T01:08:15.252Z,2.50
2022-08-12T01:08:50.003Z,2.70
2022-08-12T01:09:24.742Z,2.60
2022-08-12T01:09:59.474Z,2.70
2022-08-12T01:10:35.943Z,2.50
2022-08-12T01:11:10.694Z,2.10
2022-08-12T01:11:45.435Z,2.70
2022-08-12T01:12:21.836Z,2.90
2022-08-12T01:13:19.128Z,2.50
2022-08-12T01:13:36.248Z,2.40
2022-08-12T01:14:12.675Z,2.50
2022-08-12T01:14:47.485Z,2.50
2022-08-12T01:15:22.245Z,2.10
2022-08-12T01:15:56.995Z,2.30
2022-08-12T01:16:31.735Z,2.60
2022-08-12T01:17:07.418Z,2.30
2022-08-12T01:17:42.156Z,3.00
2022-08-12T01:18:16.897Z,2.50
2022-08-12T01:18:52.657Z,2.90
2022-08-12T01:19:27.407Z,2.50
2022-08-12T01:20:02.145Z,2.20
2022-08-12T01:20:38.568Z,2.60
2022-08-12T01:21:13.295Z,2.40
2022-08-12T01:21:48.065Z,2.70
2022-08-12T01:22:22.797Z,2.50
2022-08-12T01:22:59.718Z,2.30
2022-08-12T01:23:34.439Z,2.30
2022-08-12T01:24:29.721Z,2.90
2022-08-12T01:24:48.787Z,2.30
2022-08-12T01:25:25.010Z,2.30
2022-08-12T01:26:01.448Z,2.40
2022-08-12T01:26:38.651Z,2.30
2022-08-12T01:27:14.541Z,2.40
2022-08-12T01:27:49.260Z,2.30
2022-08-12T01:28:24.012Z,2.40
2022-08-12T01:28:58.839Z,2.90
2022-08-12T01:29:34.050Z,2.60
2022-08-12T01:30:08.808Z,2.20
2022-08-12T01:30:45.092Z,2.40
2022-08-12T01:31:20.832Z,2.70
2022-08-12T01:31:58.052Z,3.10
2022-08-12T01:32:32.783Z,2.50
2022-08-12T01:33:07.504Z,2.80
2022-08-12T01:33:42.254Z,2.60
2022-08-12T01:34:35.435Z,2.30
2022-08-12T01:34:56.605Z,2.50
2022-08-12T01:35:32.295Z,2.70
2022-08-12T01:36:07.932Z,2.80
2022-08-12T01:36:44.446Z,2.60
2022-08-12T01:37:20.904Z,2.40
2022-08-12T01:37:55.655Z,2.30
2022-08-12T01:38:30.395Z,2.60
2022-08-12T01:39:05.174Z,2.20
2022-08-12T01:40:31.484Z,2.40
2022-08-12T01:40:36.210Z,2.80
2022-08-12T01:40:59.273Z,2.30
2022-08-12T01:41:34.038Z,2.60
2022-08-12T01:42:08.801Z,2.50
2022-08-12T01:42:43.549Z,2.90
2022-08-12T01:43:19.249Z,2.60
2022-08-12T01:43:53.976Z,2.40
2022-08-12T01:44:30.188Z,2.60
2022-08-12T01:45:04.927Z,2.20
2022-08-12T01:45:43.103Z,2.30
2022-08-12T01:46:19.329Z,2.20
2022-08-12T01:46:55.779Z,2.40
2022-08-12T01:47:30.518Z,2.70
2022-08-12T01:48:05.430Z,2.30
2022-08-12T01:48:40.237Z,2.60
2022-08-12T01:49:16.650Z,2.60
2022-08-12T01:49:57.220Z,2.50
2022-08-12T01:50:33.111Z,2.70
2022-08-12T01:51:07.888Z,2.60
2022-08-12T01:52:20.416Z,2.60
2022-08-12T01:52:23.681Z,2.40
2022-08-12T01:52:58.441Z,2.30
2022-08-12T01:53:33.321Z,2.60
2022-08-12T01:54:12.922Z,2.20
2022-08-12T01:54:47.664Z,2.20
2022-08-12T01:55:22.403Z,2.60
2022-08-12T01:55:58.133Z,2.30
2022-08-12T01:56:33.813Z,2.50
2022-08-12T01:57:08.583Z,2.60
2022-08-12T01:57:59.700Z,2.80
2022-08-12T01:58:24.652Z,2.60
2022-08-12T01:59:00.343Z,2.40
2022-08-12T01:59:35.085Z,2.10
2022-08-12T02:00:09.874Z,2.80
2022-08-12T02:00:55.008Z,2.40
2022-08-12T02:01:24.310Z,2.80
2022-08-12T02:02:00.744Z,2.30
2022-08-12T02:02:35.517Z,2.70
2022-08-12T02:03:10.367Z,2.50
2022-08-12T02:03:45.096Z,2.60
2022-08-12T02:04:20.818Z,2.60
2022-08-12T02:04:55.549Z,2.70
2022-08-12T02:05:33.122Z,2.70
2022-08-12T02:06:08.015Z,2.40
2022-08-12T02:06:42.788Z,3.00
2022-08-12T02:07:18.537Z,2.60
2022-08-12T02:07:53.278Z,2.50
2022-08-12T02:08:28.015Z,2.30
2022-08-12T02:09:02.749Z,2.50
2022-08-12T02:09:37.480Z,2.30
2022-08-12T02:10:50.693Z,2.70
2022-08-12T02:10:52.807Z,2.60
2022-08-12T02:11:28.529Z,2.60
2022-08-12T02:12:05.347Z,2.50
2022-08-12T02:12:47.809Z,2.50
2022-08-12T02:13:43.831Z,2.50
2022-08-12T02:14:03.791Z,2.50
2022-08-12T02:14:39.471Z,2.40
2022-08-12T02:15:14.200Z,2.80
2022-08-12T02:15:48.942Z,2.50
2022-08-12T02:16:23.680Z,2.20
2022-08-12T02:16:58.411Z,2.40
2022-08-12T02:17:55.267Z,2.20
2022-08-12T02:18:14.442Z,2.60
2022-08-12T02:18:49.172Z,2.40
2022-08-12T02:19:24.902Z,2.20
2022-08-12T02:20:00.613Z,2.70
2022-08-12T02:20:52.069Z,2.70
2022-08-12T02:21:15.943Z,2.80
2022-08-12T02:21:50.674Z,2.40
2022-08-12T02:22:25.424Z,2.80
2022-08-12T02:23:00.164Z,2.30
2022-08-12T02:23:35.886Z,2.30
2022-08-12T02:24:10.878Z,3.00
2022-08-12T02:24:45.623Z,2.60
2022-08-12T02:25:21.326Z,2.70
2022-08-12T02:25:57.028Z,2.30
2022-08-12T02:26:33.226Z,2.20
2022-08-12T02:27:09.457Z,2.70
2022-08-12T02:27:46.375Z,2.20
2022-08-12T02:28:23.096Z,2.40
2022-08-12T02:28:58.787Z,2.40
2022-08-12T02:29:33.529Z,2.20
2022-08-12T02:30:08.278Z,2.80
2022-08-12T02:30:45.477Z,2.30
2022-08-12T02:31:20.209Z,2.60
2022-08-12T02:31:54.947Z,2.60
2022-08-12T02:32:32.137Z,2.80
2022-08-12T02:33:07.839Z,2.40
2022-08-12T02:33:43.540Z,2.60
2022-08-12T02:34:19.231Z,2.50
2022-08-12T02:34:55.931Z,2.60
2022-08-12T02:35:30.700Z,2.70
2022-08-12T02:36:06.814Z,2.50
2022-08-12T02:36:41.569Z,2.20
2022-08-12T02:37:16.390Z,2.30
2022-08-12T02:37:52.082Z,2.50
2022-08-12T02:38:27.791Z,2.60
2022-08-12T02:39:03.500Z,2.40
2022-08-12T02:39:38.287Z,2.40
2022-08-12T02:40:13.060Z,2.70
2022-08-12T02:40:48.780Z,2.20
2022-08-12T02:41:26.481Z,2.30
2022-08-12T02:42:01.231Z,2.50
2022-08-12T02:42:36.044Z,2.60
2022-08-12T02:43:10.815Z,2.30
2022-08-12T02:43:45.538Z,2.50
2022-08-12T02:44:20.282Z,2.60
2022-08-12T02:44:55.032Z,2.80
2022-08-12T02:45:29.832Z,2.30
2022-08-12T02:46:04.604Z,2.60
2022-08-12T02:46:39.314Z,2.70
2022-08-12T02:47:58.108Z,2.30
2022-08-12T02:47:59.565Z,2.10
2022-08-12T02:48:36.678Z,2.60
2022-08-12T02:49:12.567Z,2.40
2022-08-12T02:49:47.456Z,2.50
2022-08-12T02:50:22.208Z,2.70
2022-08-12T02:50:56.937Z,2.60
2022-08-12T02:51:34.137Z,2.70
2022-08-12T02:52:08.869Z,3.00
2022-08-12T02:52:43.598Z,2.70
2022-08-12T02:53:19.307Z,2.90
2022-08-12T02:54:04.419Z,2.90
2022-08-12T02:54:33.667Z,2.40
2022-08-12T02:55:08.416Z,3.00
2022-08-12T02:55:43.157Z,2.60
2022-08-12T02:56:17.898Z,2.50
2022-08-12T02:56:53.618Z,2.80
2022-08-12T02:57:28.369Z,2.50
2022-08-12T02:58:07.042Z,2.60
2022-08-12T02:58:45.187Z,2.30
2022-08-12T02:59:20.156Z,3.00
2022-08-12T02:59:55.871Z,2.40
2022-08-12T03:00:30.609Z,2.30
2022-08-12T03:01:06.630Z,2.40
2022-08-12T03:01:48.230Z,2.80
2022-08-12T03:02:24.421Z,2.40
2022-08-12T03:02:59.161Z,2.40
2022-08-12T03:03:33.881Z,2.20
2022-08-12T03:04:15.274Z,2.60
2022-08-12T03:04:48.213Z,2.90
2022-08-12T03:05:22.951Z,2.30
2022-08-12T03:06:00.764Z,2.50
2022-08-12T03:06:35.523Z,2.40
2022-08-12T03:07:10.252Z,2.60
2022-08-12T03:07:59.480Z,2.70
2022-08-12T03:08:31.844Z,2.50
2022-08-12T03:09:05.410Z,2.40
2022-08-12T03:09:58.463Z,2.30
2022-08-12T03:10:37.160Z,2.70
2022-08-12T03:11:01.334Z,2.30
2022-08-12T03:11:40.196Z,3.00
2022-08-12T03:12:20.130Z,2.70
2022-08-12T03:12:56.475Z,2.50
2022-08-12T03:13:33.678Z,2.70
2022-08-12T03:14:08.425Z,2.20
2022-08-12T03:14:43.745Z,2.50
2022-08-12T03:15:18.474Z,2.60
2022-08-12T03:15:56.685Z,2.40
2022-08-12T03:16:33.457Z,2.40
2022-08-12T03:17:11.355Z,2.30
2022-08-12T03:17:46.115Z,2.50
2022-08-12T03:18:28.764Z,2.60
2022-08-12T03:19:03.727Z,2.40
2022-08-12T03:19:38.448Z,2.40
2022-08-12T03:20:18.788Z,2.60
2022-08-12T03:20:55.239Z,2.30
2022-08-12T03:21:57.856Z,2.80
2022-08-12T03:22:10.549Z,2.40
2022-08-12T03:22:46.289Z,2.70
2022-08-12T03:23:30.373Z,2.40
2022-08-12T03:24:03.070Z,2.50
2022-08-12T03:24:37.819Z,2.30
2022-08-12T03:25:15.503Z,2.20
2022-08-12T03:25:50.221Z,2.40
2022-08-12T03:26:25.025Z,2.50
2022-08-12T03:27:00.207Z,2.30
2022-08-12T03:27:35.322Z,2.40
2022-08-12T03:28:10.052Z,2.20
2022-08-12T03:28:51.027Z,2.50
2022-08-12T03:29:27.522Z,2.30
2022-08-12T03:30:02.319Z,2.70
2022-08-12T03:30:37.032Z,2.70
2022-08-12T03:31:11.762Z,2.30
2022-08-12T03:31:46.513Z,2.70
2022-08-12T03:32:36.099Z,2.10
2022-08-12T03:33:01.870Z,2.50
2022-08-12T03:33:36.611Z,2.20
2022-08-12T03:34:13.067Z,2.50
2022-08-12T03:34:47.794Z,2.40
2022-08-12T03:35:40.038Z,2.50
2022-08-12T03:36:02.166Z,2.30
2022-08-12T03:36:36.895Z,2.40
2022-08-12T03:37:11.635Z,2.10
2022-08-12T03:37:46.378Z,2.40
2022-08-12T03:38:22.086Z,2.10
2022-08-12T03:38:56.815Z,2.30
2022-08-12T03:39:35.904Z,2.30
2022-08-12T03:40:11.226Z,2.10
2022-08-12T03:40:45.988Z,2.60
2022-08-12T03:41:21.048Z,2.60
2022-08-12T03:41:57.981Z,2.40
2022-08-12T03:42:33.038Z,2.20
2022-08-12T03:43:07.778Z,2.10
2022-08-12T03:43:47.469Z,2.60
2022-08-12T03:44:22.218Z,2.40
2022-08-12T03:45:01.579Z,2.40
2022-08-12T03:45:42.942Z,2.50
2022-08-12T03:46:17.629Z,2.60
2022-08-12T03:46:52.360Z,2.50
2022-08-12T03:47:28.069Z,2.60
2022-08-12T03:48:02.812Z,2.30
2022-08-12T03:48:37.568Z,2.50
2022-08-12T03:49:12.300Z,2.10
2022-08-12T03:49:47.062Z,2.50
2022-08-12T03:50:21.820Z,2.30
2022-08-12T03:50:56.561Z,2.30
2022-08-12T03:51:31.298Z,2.20
2022-08-12T03:52:07.002Z,2.40
2022-08-12T03:52:41.901Z,2.30
2022-08-12T03:53:17.678Z,2.60
2022-08-12T03:53:55.383Z,2.40
2022-08-12T03:54:30.133Z,2.70
2022-08-12T03:55:04.893Z,2.20
2022-08-12T03:55:39.613Z,2.20
2022-08-12T03:56:14.343Z,2.60
2022-08-12T03:56:51.547Z,2.10
2022-08-12T03:57:27.256Z,2.00
2022-08-12T03:58:02.004Z,2.60
2022-08-12T03:58:37.695Z,2.80
2022-08-12T03:59:12.434Z,2.50
2022-08-12T03:59:47.175Z,2.40
2022-08-12T04:00:24.236Z,2.70
2022-08-12T04:01:00.760Z,2.50
2022-08-12T04:01:40.927Z,2.50
2022-08-12T04:02:15.107Z,2.70
2022-08-12T04:02:50.829Z,2.20
2022-08-12T04:03:25.576Z,2.50
2022-08-12T04:04:01.297Z,2.10
2022-08-12T04:04:36.997Z,2.30
2022-08-12T04:05:11.786Z,2.50
2022-08-12T04:05:55.901Z,2.40
2022-08-12T04:06:35.364Z,2.40
2022-08-12T04:07:07.549Z,2.40
2022-08-12T04:07:57.947Z,2.20
2022-08-12T04:08:21.890Z,2.20
2022-08-12T04:08:58.343Z,2.30
2022-08-12T04:09:34.029Z,2.20
2022-08-12T04:10:08.809Z,2.50
2022-08-12T04:10:43.590Z,2.40
2022-08-12T04:11:18.329Z,2.20
2022-08-12T04:11:53.093Z,2.30
2022-08-12T04:12:32.243Z,2.30
2022-08-12T04:13:07.469Z,2.30
2022-08-12T04:13:43.910Z,2.80
2022-08-12T04:14:20.331Z,2.60
2022-08-12T04:14:56.773Z,2.70
2022-08-12T04:15:31.551Z,2.40
2022-08-12T04:16:06.260Z,2.50
2022-08-12T04:16:41.000Z,2.40
2022-08-12T04:17:15.723Z,2.50
2022-08-12T04:18:06.446Z,2.40
2022-08-12T04:18:32.773Z,2.60
2022-08-12T04:19:07.553Z,2.60
2022-08-12T04:19:43.512Z,2.10
2022-08-12T04:20:18.254Z,2.60
2022-08-12T04:20:53.002Z,2.50
2022-08-12T04:21:27.733Z,2.50
2022-08-12T04:22:03.856Z,2.40
2022-08-12T04:22:40.611Z,2.50
2022-08-12T04:23:16.791Z,2.10
2022-08-12T04:23:52.636Z,2.60
2022-08-12T04:24:27.365Z,2.50
2022-08-12T04:25:03.816Z,2.30
2022-08-12T04:25:39.518Z,2.20
2022-08-12T04:26:14.267Z,2.40
2022-08-12T04:26:49.234Z,2.60
2022-08-12T04:27:24.028Z,2.10
2022-08-12T04:27:58.745Z,2.30
2022-08-12T04:28:38.376Z,2.40
2022-08-12T04:29:13.157Z,2.30
2022-08-12T04:30:30.138Z,2.50
2022-08-12T04:30:33.346Z,2.50
2022-08-12T04:31:07.117Z,2.20
2022-08-12T04:31:42.835Z,2.50
2022-08-12T04:32:17.742Z,2.40
2022-08-12T04:32:54.117Z,2.60
2022-08-12T04:33:28.897Z,2.50
2022-08-12T04:34:03.639Z,2.60
2022-08-12T04:34:38.389Z,2.30
2022-08-12T04:35:15.331Z,2.40
2022-08-12T04:35:50.069Z,2.10
2022-08-12T04:36:24.800Z,2.70
2022-08-12T04:37:01.512Z,2.60
2022-08-12T04:37:58.628Z,2.40
2022-08-12T04:38:15.931Z,2.40
2022-08-12T04:38:51.652Z,2.30
2022-08-12T04:39:27.368Z,2.40
2022-08-12T04:40:03.572Z,2.30
2022-08-12T04:40:38.323Z,2.50
2022-08-12T04:41:14.004Z,2.20
2022-08-12T04:41:57.658Z,2.60
2022-08-12T04:42:29.583Z,2.40
2022-08-12T04:43:06.024Z,2.20
2022-08-12T04:43:54.574Z,2.20
2022-08-12T04:44:20.813Z,2.20
2022-08-12T04:44:56.514Z,2.70
2022-08-12T04:45:33.727Z,2.50
2022-08-12T04:46:08.504Z,2.20
2022-08-12T04:46:43.235Z,2.50
2022-08-12T04:47:19.934Z,2.50
2022-08-12T04:47:54.678Z,2.50
2022-08-12T04:48:29.415Z,2.60
2022-08-12T04:49:05.038Z,2.40
2022-08-12T04:49:39.805Z,2.60
2022-08-12T04:50:27.222Z,2.60
2022-08-12T04:50:54.227Z,2.50
2022-08-12T04:51:28.984Z,2.40
2022-08-12T04:52:03.747Z,2.70
2022-08-12T04:52:39.548Z,2.60
2022-08-12T04:53:15.267Z,2.60
2022-08-12T04:53:50.978Z,2.70
2022-08-12T04:54:25.734Z,2.70
2022-08-12T04:55:02.928Z,2.40
2022-08-12T04:55:38.655Z,3.00
2022-08-12T04:56:14.358Z,2.80
2022-08-12T04:57:04.042Z,2.60
2022-08-12T04:57:29.668Z,2.20
2022-08-12T04:58:06.873Z,2.50
2022-08-12T04:58:41.639Z,2.30
2022-08-12T04:59:16.389Z,2.30
2022-08-12T04:59:52.110Z,2.40
2022-08-12T05:00:26.840Z,2.60
2022-08-12T05:01:02.542Z,2.50
2022-08-12T05:01:39.760Z,2.60
2022-08-12T05:02:16.704Z,2.50
2022-08-12T05:02:52.004Z,2.70
2022-08-12T05:03:27.702Z,2.60
2022-08-12T05:04:02.441Z,2.60
2022-08-12T05:04:37.185Z,2.60
2022-08-12T05:05:11.984Z,2.30
2022-08-12T05:05:48.423Z,2.50
2022-08-12T05:06:26.748Z,2.50
2022-08-12T05:07:03.393Z,2.20
2022-08-12T05:07:45.741Z,2.80
2022-08-12T05:08:18.764Z,2.40
2022-08-12T05:08:53.507Z,2.80
2022-08-12T05:09:58.716Z,2.20
2022-08-12T05:10:07.994Z,2.30
2022-08-12T05:10:42.785Z,2.30
2022-08-12T05:11:18.529Z,2.60
2022-08-12T05:11:54.629Z,2.50
2022-08-12T05:12:29.395Z,3.00
2022-08-12T05:13:04.226Z,2.80
2022-08-12T05:13:39.047Z,3.00
2022-08-12T05:14:13.804Z,2.80
2022-08-12T05:14:49.637Z,2.10
2022-08-12T05:15:29.214Z,2.50
2022-08-12T05:16:09.291Z,2.30
2022-08-12T05:16:45.840Z,2.70
2022-08-12T05:17:22.408Z,2.40
2022-08-12T05:18:20.524Z,2.20
2022-08-12T05:18:45.787Z,2.70
2022-08-12T05:19:23.632Z,2.40
2022-08-12T05:19:59.679Z,2.20
2022-08-12T05:20:36.369Z,2.50
2022-08-12T05:21:12.199Z,2.70
2022-08-12T05:21:47.131Z,2.40
2022-08-12T05:22:22.929Z,2.50
2022-08-12T05:23:05.371Z,2.50
2022-08-12T05:23:39.230Z,2.50
2022-08-12T05:24:15.250Z,2.30
2022-08-12T05:24:51.071Z,2.40
2022-08-12T05:25:26.910Z,3.00
2022-08-12T05:26:02.789Z,2.60
2022-08-12T05:26:38.631Z,2.60
2022-08-12T05:27:14.492Z,2.20
2022-08-12T05:27:55.326Z,2.50
2022-08-12T05:28:31.143Z,2.20
2022-08-12T05:30:05.062Z,2.50
2022-08-12T05:30:05.568Z,2.40
2022-08-12T05:30:29.733Z,2.40
2022-08-12T05:31:06.348Z,2.40
2022-08-12T05:31:48.317Z,2.40
2022-08-12T05:32:25.083Z,2.20
2022-08-12T05:33:02.067Z,2.60
2022-08-12T05:33:38.064Z,2.50
2022-08-12T05:34:13.996Z,2.70
2022-08-12T05:34:49.894Z,2.20
2022-08-12T05:35:26.724Z,2.70
2022-08-12T05:36:04.185Z,2.40
2022-08-12T05:36:40.255Z,2.10
2022-08-12T05:37:16.165Z,2.50
2022-08-12T05:37:53.066Z,2.20
2022-08-12T05:38:30.450Z,2.50
2022-08-12T05:39:06.289Z,2.60
2022-08-12T05:39:42.383Z,2.20
2022-08-12T05:40:17.117Z,2.50
2022-08-12T05:40:51.880Z,2.90
2022-08-12T05:41:26.627Z,2.80
2022-08-12T05:42:01.617Z,2.50
2022-08-12T05:42:36.368Z,2.20
2022-08-12T05:43:12.098Z,2.80
2022-08-12T05:43:47.898Z,2.50
2022-08-12T05:44:26.841Z,2.10
2022-08-12T05:45:01.611Z,2.90
2022-08-12T05:45:39.240Z,2.80
2022-08-12T22:00:17.217Z,1.20
2022-08-12T22:00:51.929Z,0.90
2022-08-12T22:01:26.731Z,0.80
2022-08-12T22:02:04.948Z,0.90
2022-08-12T22:02:42.188Z,0.90
2022-08-12T22:04:01.531Z,1.10
2022-08-12T22:04:11.466Z,0.80
2022-08-12T22:04:49.587Z,0.90
2022-08-12T22:05:23.229Z,1.20
2022-08-12T22:05:59.040Z,1.00
2022-08-12T22:06:43.474Z,1.20
2022-08-12T22:07:18.516Z,0.80
2022-08-12T22:07:55.374Z,1.20
2022-08-12T22:08:32.980Z,0.90
2022-08-12T22:09:07.720Z,0.90
2022-08-12T22:09:43.810Z,1.00
2022-08-12T22:10:20.322Z,0.80
2022-08-12T22:10:59.953Z,0.80
2022-08-12T22:11:41.646Z,0.90
2022-08-12T22:12:19.836Z,1.00
2022-08-12T22:12:54.893Z,1.40
2022-08-12T22:14:02.554Z,1.10
2022-08-12T22:14:21.222Z,1.00
2022-08-12T22:14:50.434Z,0.90
2022-08-12T22:15:25.170Z,1.00
2022-08-12T22:16:00.664Z,1.20
2022-08-12T22:16:35.436Z,1.20
2022-08-12T22:17:20.115Z,0.90
2022-08-12T22:17:55.506Z,1.00
2022-08-12T22:18:31.624Z,1.00
2022-08-12T22:19:06.836Z,1.00
2022-08-12T22:19:41.556Z,1.00
2022-08-12T22:20:17.966Z,0.80
2022-08-12T22:20:57.757Z,1.10
2022-08-12T22:21:38.091Z,0.80
2022-08-12T22:22:14.098Z,0.90
2022-08-12T22:22:53.716Z,0.70
2022-08-12T22:23:51.918Z,1.00
2022-08-12T22:24:10.498Z,0.80
2022-08-12T22:24:51.588Z,1.20
2022-08-12T22:25:32.868Z,1.00
2022-08-12T22:26:08.577Z,1.10
2022-08-12T22:26:43.309Z,1.00
2022-08-12T22:27:32.454Z,1.00
2022-08-12T22:27:59.891Z,1.10
2022-08-12T22:28:39.086Z,1.00
2022-08-12T22:29:13.981Z,0.90
2022-08-12T22:29:52.912Z,1.10
2022-08-12T22:30:27.651Z,1.20
2022-08-12T22:31:02.370Z,0.90
2022-08-12T22:31:39.568Z,1.20
2022-08-12T22:32:16.042Z,0.80
2022-08-12T22:32:55.149Z,1.10
2022-08-12T22:33:30.151Z,1.00
2022-08-12T22:34:09.754Z,1.10
2022-08-12T22:34:52.240Z,1.00
2022-08-12T22:35:29.192Z,1.00
2022-08-12T22:36:04.333Z,0.80
2022-08-12T22:36:39.072Z,0.80
2022-08-12T22:37:20.182Z,1.10
2022-08-12T22:37:56.122Z,0.80
2022-08-12T22:38:30.853Z,1.00
2022-08-12T22:39:06.285Z,1.10
2022-08-12T22:39:43.913Z,1.10
2022-08-12T22:40:19.909Z,1.00
2022-08-12T22:40:54.644Z,1.00
2022-08-12T22:41:30.557Z,1.10
2022-08-12T22:42:05.295Z,1.10
2022-08-12T22:42:41.007Z,0.80
2022-08-12T22:43:17.227Z,1.00
2022-08-12T22:44:00.766Z,1.20
2022-08-12T22:44:31.578Z,1.20
2022-08-12T22:45:16.253Z,0.90
2022-08-12T22:45:56.312Z,0.90
2022-08-12T22:46:30.671Z,1.10
2022-08-12T22:47:06.880Z,0.90
2022-08-12T22:47:53.984Z,1.00
2022-08-12T22:48:26.536Z,1.10
2022-08-12T22:49:01.132Z,0.90
2022-08-12T22:49:37.228Z,0.90
2022-08-12T22:50:27.334Z,0.80
2022-08-12T22:50:55.140Z,0.90
2022-08-12T22:51:42.938Z,1.00
2022-08-12T22:52:11.972Z,1.00
2022-08-12T22:52:47.702Z,0.90
2022-08-12T22:53:24.771Z,0.70
2022-08-12T22:54:04.442Z,0.90
2022-08-12T22:54:46.491Z,0.80
2022-08-12T22:55:59.145Z,0.90
2022-08-12T22:56:06.466Z,1.00
2022-08-12T22:56:43.886Z,1.00
2022-08-12T22:57:19.579Z,0.90
2022-08-12T22:57:58.423Z,1.00
2022-08-12T22:58:33.145Z,0.90
2022-08-12T22:59:07.973Z,0.90
2022-08-12T22:59:55.201Z,0.80
2022-08-12T23:00:27.939Z,1.20
2022-08-12T23:01:04.077Z,0.90
2022-08-12T23:01:52.444Z,0.90
2022-08-12T23:02:29.058Z,0.90
2022-08-12T23:03:02.648Z,1.10
2022-08-12T23:03:47.651Z,1.00
2022-08-12T23:04:27.752Z,0.90
2022-08-12T23:04:56.976Z,0.90
2022-08-12T23:05:57.170Z,1.00
2022-08-12T23:06:11.432Z,1.10
2022-08-12T23:06:46.162Z,1.10
2022-08-12T23:07:24.253Z,0.80
2022-08-12T23:08:01.156Z,0.80
2022-08-12T23:08:35.897Z,1.00
2022-08-12T23:09:10.848Z,0.90
2022-08-12T23:09:48.759Z,1.10
2022-08-12T23:10:24.071Z,0.80
2022-08-12T23:10:59.179Z,0.90
2022-08-12T23:11:40.551Z,0.90
2022-08-12T23:12:24.963Z,0.90
2022-08-12T23:12:58.654Z,0.80
2022-08-12T23:13:43.241Z,0.90
2022-08-12T23:14:13.021Z,1.00
2022-08-12T23:14:47.780Z,1.00
2022-08-12T23:15:22.503Z,0.90
2022-08-12T23:15:57.242Z,0.90
2022-08-12T23:16:34.411Z,0.90
2022-08-12T23:17:21.345Z,0.90
2022-08-12T23:17:55.833Z,1.00
2022-08-12T23:18:33.277Z,0.90
2022-08-12T23:19:10.729Z,1.10
2022-08-12T23:19:49.703Z,1.00
2022-08-12T23:20:26.992Z,1.10
2022-08-12T23:21:02.172Z,0.90
2022-08-12T23:21:40.395Z,0.80
2022-08-12T23:23:03.211Z,1.00
2022-08-12T23:23:05.878Z,0.90
2022-08-12T23:23:57.552Z,0.90
2022-08-12T23:24:18.135Z,1.00
2022-08-12T23:24:55.368Z,0.80
2022-08-12T23:25:32.684Z,0.90
2022-08-12T23:26:11.297Z,1.00
2022-08-12T23:26:47.257Z,1.00
2022-08-12T23:27:35.190Z,1.10
2022-08-12T23:28:06.357Z,0.80
2022-08-12T23:28:53.201Z,1.10
2022-08-12T23:29:42.757Z,0.90
2022-08-12T23:30:18.774Z,0.80
2022-08-12T23:30:47.438Z,1.10
2022-08-12T23:31:26.926Z,1.00
2022-08-12T23:32:04.096Z,1.00
2022-08-12T23:32:40.647Z,0.90
2022-08-12T23:33:21.495Z,0.80
2022-08-12T23:34:00.836Z,0.90
2022-08-12T23:34:34.844Z,1.10
2022-08-12T23:35:09.580Z,1.00
2022-08-12T23:36:02.178Z,0.90
2022-08-12T23:36:32.743Z,1.00
2022-08-12T23:37:08.400Z,0.90
2022-08-12T23:37:47.716Z,1.10
2022-08-12T23:38:30.794Z,0.90
2022-08-12T23:39:06.503Z,0.90
2022-08-12T23:40:13.898Z,1.20
2022-08-12T23:40:25.912Z,0.90
2022-08-12T23:41:01.000Z,0.70
2022-08-12T23:41:56.505Z,1.20
2022-08-12T23:42:16.781Z,0.90
2022-08-12T23:42:54.393Z,0.90
2022-08-12T23:43:39.574Z,1.20
2022-08-12T23:44:08.744Z,0.90
2022-08-12T23:44:43.866Z,0.90
2022-08-12T23:45:30.821Z,1.10
2022-08-12T23:46:01.417Z,0.90
2022-08-12T23:46:37.597Z,1.00
2022-08-12T23:47:16.246Z,1.10
2022-08-12T23:47:54.565Z,1.00
2022-08-12T23:48:33.668Z,0.90
2022-08-12T23:49:15.124Z,0.90
2022-08-12T23:49:57.672Z,1.00
2022-08-12T23:50:34.372Z,1.00
2022-08-12T23:51:23.286Z,1.10
2022-08-12T23:51:49.695Z,1.00
2022-08-12T23:52:25.447Z,1.10
2022-08-12T23:53:05.535Z,0.80
2022-08-12T23:53:41.661Z,1.00
2022-08-12T23:54:17.865Z,1.10
2022-08-12T23:54:58.450Z,1.20
2022-08-12T23:55:33.409Z,0.90
2022-08-12T23:56:09.360Z,0.90
2022-08-12T23:56:44.090Z,0.90
2022-08-12T23:57:20.520Z,1.00
2022-08-12T23:58:21.103Z,0.90
2022-08-12T23:58:37.966Z,1.00
2022-08-12T23:59:14.004Z,0.90
2022-08-12T23:59:55.460Z,1.00
